This demonstration page uses our WeatherBlox Daily Observations layout. Learn more.

Left ArrowRight Arrow

39.92423, -83.80882

Hourly Observations for March 30, 2020

Temp ( °F °C ) Dew Point ( °F °C ) Humidity (%) Winds ( mph kmh ) Pressure ( in mb ) Visibility ( mi km ) Precip ( " mm )
12:56 am 00:56 Clear 53 11.7 34 1.1 48 48 WSW 16 26 29.96 1015 10 16.0934 0 0
1:56 am 01:56 Clear 52 11.1 33 0.6 49 49 WSW 15 24 29.97 1015 10 16.0934 0 0
2:56 am 02:56 Clear 51 10.6 32 0 48 48 W 16 26 29.96 1015 10 16.0934 0 0
3:56 am 03:56 Clear 50 10 34 1.1 54 54 WSW 17 28 29.96 1015 10 16.0934 0 0
4:56 am 04:56 Clear 49 9.4 36 2.2 61 61 WSW 18 30 29.96 1015 10 16.0934 0 0
5:56 am 05:56 Clear 46 7.8 37 2.8 71 71 W 15 24 29.99 1016 10 16.0934 0 0
6:56 am 06:56 Mostly Cloudy 45 7.2 37 2.8 74 74 W 13 20 30.02 1017 10 16.0934 0 0
7:56 am 07:56 Partly Cloudy 44 6.7 35 1.7 71 71 W 18 30 30.04 1017 10 16.0934 0 0
8:49 am 08:49 Mostly Cloudy 43 6 36 2 76 76 W 25 41 30.06 1018 10 16.0934 0 0
8:56 am 08:56 Cloudy 43 6.1 36 2.2 76 76 W 26 43 30.05 1018 10 16.0934 0 0
9:56 am 09:56 Mostly Cloudy 45 7.2 36 2.2 71 71 W 25 41 30.07 1018 10 16.0934 0 0
10:56 am 10:56 Cloudy 46 7.8 37 2.8 71 71 W 18 30 30.09 1019 10 16.0934 0 0
11:56 am 11:56 Cloudy 47 8.3 36 2.2 66 66 W 21 33 30.1 1019 10 16.0934 0 0
12:56 pm 12:56 Cloudy 47 8.3 37 2.8 69 69 W 18 30 30.11 1020 10 16.0934 0 0
1:56 pm 13:56 Cloudy 48 8.9 37 2.8 66 66 WNW 21 33 30.11 1020 10 16.0934 0 0
2:56 pm 14:56 Cloudy 49 9.4 37 2.8 64 64 WNW 21 33 30.1 1019 10 16.0934 0 0
3:56 pm 15:56 Cloudy 49 9.4 37 2.8 64 64 WNW 20 31 30.1 1019 10 16.0934 0 0
4:56 pm 16:56 Cloudy 49 9.4 38 3.3 66 66 WNW 15 24 30.1 1019 10 16.0934 0 0
5:56 pm 17:56 Cloudy 49 9.4 37 2.8 64 64 WNW 18 30 30.1 1019 10 16.0934 0 0
6:56 pm 18:56 Cloudy 47 8.3 36 2.2 66 66 NW 14 22 30.11 1020 10 16.0934 0 0
7:56 pm 19:56 Cloudy 45 7.2 35 1.7 68 68 NNW 12 19 30.12 1020 10 16.0934 0 0
8:56 pm 20:56 Cloudy 44 6.7 34 1.1 68 68 NNW 9 15 30.13 1020 10 16.0934 0.13 3.302
9:56 pm 21:56 Cloudy 44 6.7 34 1.1 68 68 NNW 8 13 30.13 1020 10 16.0934 3.46 87.884
10:56 pm 22:56 Cloudy 43 6.1 34 1.1 71 71 NW 5 7 30.1 1019 10 16.0934 2.64 67.056
11:56 pm 23:56 Cloudy 42 5.6 36 2.2 79 79 NW 6 9 30.1 1019 10 16.0934 0 0

Powered by AerisWeather